sensor_id;sensor_type;location;lat;lon;timestamp;pressure;altitude;pressure_sealevel;temperature;humidity
33454;BME280;39400;49.744;7.012;2023-04-01T00:01:13;94248.47;;;7.52;100.00
33454;BME280;39400;49.744;7.012;2023-04-01T00:03:39;94264.88;;;7.76;100.00
33454;BME280;39400;49.744;7.012;2023-04-01T00:06:05;94255.84;;;7.55;100.00
33454;BME280;39400;49.744;7.012;2023-04-01T00:08:31;94259.09;;;7.47;100.00
33454;BME280;39400;49.744;7.012;2023-04-01T00:10:56;94262.16;;;7.52;100.00
33454;BME280;39400;49.744;7.012;2023-04-01T00:13:23;94261.44;;;7.48;100.00
33454;BME280;39400;49.744;7.012;2023-04-01T00:15:49;94262.56;;;7.51;100.00
33454;BME280;39400;49.744;7.012;2023-04-01T00:18:14;94252.03;;;7.49;100.00
33454;BME280;39400;49.744;7.012;2023-04-01T00:20:45;94239.66;;;7.41;100.00
33454;BME280;39400;49.744;7.012;2023-04-01T00:23:11;94265.44;;;7.40;100.00
33454;BME280;39400;49.744;7.012;2023-04-01T00:25:36;94245.72;;;7.29;100.00
33454;BME280;39400;49.744;7.012;2023-04-01T00:28:02;94247.34;;;7.50;100.00
33454;BME280;39400;49.744;7.012;2023-04-01T00:30:27;94262.25;;;7.45;100.00
33454;BME280;39400;49.744;7.012;2023-04-01T00:32:53;94260.03;;;7.36;100.00
33454;BME280;39400;49.744;7.012;2023-04-01T00:35:19;94249.22;;;7.29;100.00
33454;BME280;39400;49.744;7.012;2023-04-01T00:37:44;94256.47;;;7.39;100.00
33454;BME280;39400;49.744;7.012;2023-04-01T00:40:33;94250.81;;;7.27;100.00
33454;BME280;39400;49.744;7.012;2023-04-01T00:42:59;94250.81;;;7.27;100.00
33454;BME280;39400;49.744;7.012;2023-04-01T00:45:34;94261.75;;;7.27;100.00
33454;BME280;39400;49.744;7.012;2023-04-01T00:48:05;94270.97;;;7.36;100.00
33454;BME280;39400;49.744;7.012;2023-04-01T00:50:33;94247.50;;;7.39;100.00
33454;BME280;39400;49.744;7.012;2023-04-01T00:53:01;94261.34;;;7.28;100.00
33454;BME280;39400;49.744;7.012;2023-04-01T00:55:29;94244.53;;;7.30;100.00
33454;BME280;39400;49.744;7.012;2023-04-01T00:57:56;94221.72;;;7.40;100.00
33454;BME280;39400;49.744;7.012;2023-04-01T01:00:23;94243.69;;;7.33;100.00
33454;BME280;39400;49.744;7.012;2023-04-01T01:02:50;94237.28;;;7.43;100.00
33454;BME280;39400;49.744;7.012;2023-04-01T01:05:16;94250.91;;;7.20;100.00
33454;BME280;39400;49.744;7.012;2023-04-01T01:08:14;94238.94;;;7.37;100.00
33454;BME280;39400;49.744;7.012;2023-04-01T01:10:43;94247.56;;;7.35;100.00
33454;BME280;39400;49.744;7.012;2023-04-01T01:13:36;94228.72;;;7.41;100.00
33454;BME280;39400;49.744;7.012;2023-04-01T01:16:11;94242.97;;;7.29;100.00
33454;BME280;39400;49.744;7.012;2023-04-01T01:18:46;94236.38;;;7.26;100.00
33454;BME280;39400;49.744;7.012;2023-04-01T01:24:43;94228.72;;;7.41;100.00
33454;BME280;39400;49.744;7.012;2023-04-01T01:27:18;94246.53;;;7.26;100.00
33454;BME280;39400;49.744;7.012;2023-04-01T01:30:07;94232.34;;;7.34;100.00
33454;BME280;39400;49.744;7.012;2023-04-01T01:37:43;94225.75;;;7.32;100.00
33454;BME280;39400;49.744;7.012;2023-04-01T01:40:11;94232.75;;;7.33;100.00
33454;BME280;39400;49.744;7.012;2023-04-01T01:42:43;94225.63;;;7.39;100.00
33454;BME280;39400;49.744;7.012;2023-04-01T01:45:12;94221.72;;;7.40;100.00
33454;BME280;39400;49.744;7.012;2023-04-01T01:47:40;94223.31;;;7.37;100.00
33454;BME280;39400;49.744;7.012;2023-04-01T01:50:07;94222.31;;;7.28;100.00
33454;BME280;39400;49.744;7.012;2023-04-01T01:52:33;94216.53;;;7.46;100.00
33454;BME280;39400;49.744;7.012;2023-04-01T01:54:58;94227.94;;;7.41;100.00
33454;BME280;39400;49.744;7.012;2023-04-01T01:57:34;94219.34;;;7.42;100.00
33454;BME280;39400;49.744;7.012;2023-04-01T02:00:07;94228.06;;;7.33;100.00
33454;BME280;39400;49.744;7.012;2023-04-01T02:02:42;94238.16;;;7.36;100.00
33454;BME280;39400;49.744;7.012;2023-04-01T02:05:17;94220.41;;;7.25;100.00
33454;BME280;39400;49.744;7.012;2023-04-01T02:07:47;94222.06;;;7.42;100.00
33454;BME280;39400;49.744;7.012;2023-04-01T02:10:14;94211.72;;;7.30;100.00
33454;BME280;39400;49.744;7.012;2023-04-01T02:12:42;94197.94;;;7.37;100.00
33454;BME280;39400;49.744;7.012;2023-04-01T02:15:12;94215.47;;;7.39;100.00
33454;BME280;39400;49.744;7.012;2023-04-01T02:17:43;94212.84;;;7.32;100.00
33454;BME280;39400;49.744;7.012;2023-04-01T02:20:13;94220.63;;;7.34;100.00
33454;BME280;39400;49.744;7.012;2023-04-01T02:22:48;94222.53;;;7.37;100.00
33454;BME280;39400;49.744;7.012;2023-04-01T02:25:18;94222.66;;;7.30;100.00
33454;BME280;39400;49.744;7.012;2023-04-01T02:27:45;94222.97;;;7.08;100.00
33454;BME280;39400;49.744;7.012;2023-04-01T02:30:12;94213.47;;;7.17;100.00
33454;BME280;39400;49.744;7.012;2023-04-01T02:32:39;94212.75;;;7.12;100.00
33454;BME280;39400;49.744;7.012;2023-04-01T02:35:10;94223.69;;;7.12;100.00
33454;BME280;39400;49.744;7.012;2023-04-01T02:37:37;94217.06;;;7.13;100.00
33454;BME280;39400;49.744;7.012;2023-04-01T02:40:05;94228.19;;;6.99;100.00
33454;BME280;39400;49.744;7.012;2023-04-01T02:42:31;94226.13;;;6.80;100.00
33454;BME280;39400;49.744;7.012;2023-04-01T02:44:56;94221.75;;;6.86;100.00
33454;BME280;39400;49.744;7.012;2023-04-01T02:47:21;94235.81;;;6.84;100.00
33454;BME280;39400;49.744;7.012;2023-04-01T02:49:47;94249.16;;;6.79;100.00
33454;BME280;39400;49.744;7.012;2023-04-01T02:52:12;94231.59;;;6.80;100.00
33454;BME280;39400;49.744;7.012;2023-04-01T02:54:38;94242.66;;;6.69;100.00
33454;BME280;39400;49.744;7.012;2023-04-01T02:57:03;94245.97;;;6.84;100.00
33454;BME280;39400;49.744;7.012;2023-04-01T02:59:28;94234.53;;;6.65;100.00
33454;BME280;39400;49.744;7.012;2023-04-01T03:01:54;94225.94;;;6.63;100.00
33454;BME280;39400;49.744;7.012;2023-04-01T03:04:19;94220.06;;;6.69;100.00
33454;BME280;39400;49.744;7.012;2023-04-01T03:06:44;94232.66;;;6.59;100.00
33454;BME280;39400;49.744;7.012;2023-04-01T03:09:10;94228.03;;;6.83;100.00
33454;BME280;39400;49.744;7.012;2023-04-01T03:11:35;94223.22;;;6.63;100.00
33454;BME280;39400;49.744;7.012;2023-04-01T03:14:00;94218.22;;;6.58;100.00
33454;BME280;39400;49.744;7.012;2023-04-01T03:16:26;94215.19;;;6.53;100.00
33454;BME280;39400;49.744;7.012;2023-04-01T03:18:52;94220.97;;;6.58;100.00
33454;BME280;39400;49.744;7.012;2023-04-01T03:21:22;94225.56;;;6.61;100.00
33454;BME280;39400;49.744;7.012;2023-04-01T03:23:48;94217.91;;;6.53;100.00
33454;BME280;39400;49.744;7.012;2023-04-01T03:26:14;94216.00;;;6.50;100.00
33454;BME280;39400;49.744;7.012;2023-04-01T03:28:40;94217.13;;;6.52;100.00
33454;BME280;39400;49.744;7.012;2023-04-01T03:31:06;94208.03;;;6.62;100.00
33454;BME280;39400;49.744;7.012;2023-04-01T03:33:40;94211.84;;;6.69;100.00
33454;BME280;39400;49.744;7.012;2023-04-01T03:36:05;94211.97;;;6.58;100.00
33454;BME280;39400;49.744;7.012;2023-04-01T03:38:32;94208.03;;;6.62;100.00
33454;BME280;39400;49.744;7.012;2023-04-01T03:40:57;94212.97;;;6.71;100.00
33454;BME280;39400;49.744;7.012;2023-04-01T03:43:22;94192.38;;;6.66;100.00
33454;BME280;39400;49.744;7.012;2023-04-01T03:45:49;94212.03;;;6.54;100.00
33454;BME280;39400;49.744;7.012;2023-04-01T03:48:15;94224.19;;;6.50;100.00
33454;BME280;39400;49.744;7.012;2023-04-01T03:50:40;94207.22;;;6.65;100.00
33454;BME280;39400;49.744;7.012;2023-04-01T03:53:06;94209.63;;;6.60;100.00
33454;BME280;39400;49.744;7.012;2023-04-01T03:55:32;94201.09;;;6.54;100.00
33454;BME280;39400;49.744;7.012;2023-04-01T03:57:57;94204.09;;;6.63;100.00
33454;BME280;39400;49.744;7.012;2023-04-01T04:00:22;94211.88;;;6.65;100.00
33454;BME280;39400;49.744;7.012;2023-04-01T04:02:52;94200.38;;;6.50;100.00
33454;BME280;39400;49.744;7.012;2023-04-01T04:05:24;94204.94;;;6.60;100.00
33454;BME280;39400;49.744;7.012;2023-04-01T04:07:51;94207.75;;;6.53;100.00
33454;BME280;39400;49.744;7.012;2023-04-01T04:10:16;94211.63;;;6.56;100.00
33454;BME280;39400;49.744;7.012;2023-04-01T04:12:42;94218.72;;;6.50;100.00
33454;BME280;39400;49.744;7.012;2023-04-01T04:15:08;94198.78;;;6.53;100.00
33454;BME280;39400;49.744;7.012;2023-04-01T04:17:34;94195.09;;;6.36;100.00
33454;BME280;39400;49.744;7.012;2023-04-01T04:19:59;94194.16;;;6.50;100.00
33454;BME280;39400;49.744;7.012;2023-04-01T04:22:25;94198.84;;;6.49;100.00
33454;BME280;39400;49.744;7.012;2023-04-01T04:24:51;94194.28;;;6.39;100.00
33454;BME280;39400;49.744;7.012;2023-04-01T04:27:17;94198.94;;;6.42;100.00
33454;BME280;39400;49.744;7.012;2023-04-01T04:29:52;94200.47;;;6.43;100.00
33454;BME280;39400;49.744;7.012;2023-04-01T04:32:17;94195.69;;;6.51;100.00
33454;BME280;39400;49.744;7.012;2023-04-01T04:34:43;94184.97;;;6.36;100.00
33454;BME280;39400;49.744;7.012;2023-04-01T04:37:08;94183.28;;;6.46;100.00
33454;BME280;39400;49.744;7.012;2023-04-01T04:39:35;94189.59;;;6.39;100.00
33454;BME280;39400;49.744;7.012;2023-04-01T04:42:01;94182.59;;;6.38;100.00
33454;BME280;39400;49.744;7.012;2023-04-01T04:44:27;94187.97;;;6.46;100.00
33454;BME280;39400;49.744;7.012;2023-04-01T04:46:52;94195.06;;;6.39;100.00
33454;BME280;39400;49.744;7.012;2023-04-01T04:49:17;94193.47;;;6.42;100.00
33454;BME280;39400;49.744;7.012;2023-04-01T04:51:43;94192.81;;;6.34;100.00
33454;BME280;39400;49.744;7.012;2023-04-01T04:54:09;94199.47;;;6.30;100.00
33454;BME280;39400;49.744;7.012;2023-04-01T04:56:53;94201.28;;;6.40;100.00
33454;BME280;39400;49.744;7.012;2023-04-01T04:59:20;94189.56;;;6.43;100.00
33454;BME280;39400;49.744;7.012;2023-04-01T05:01:59;94202.91;;;6.34;100.00
33454;BME280;39400;49.744;7.012;2023-04-01T05:04:24;94197.16;;;6.28;100.00
33454;BME280;39400;49.744;7.012;2023-04-01T05:06:49;94198.09;;;6.14;100.00
33454;BME280;39400;49.744;7.012;2023-04-01T05:09:16;94201.34;;;6.36;100.00
33454;BME280;39400;49.744;7.012;2023-04-01T05:11:42;94200.75;;;6.22;100.00
33454;BME280;39400;49.744;7.012;2023-04-01T05:14:12;94197.78;;;6.39;100.00
33454;BME280;39400;49.744;7.012;2023-04-01T05:16:38;94189.66;;;6.36;100.00
33454;BME280;39400;49.744;7.012;2023-04-01T05:19:03;94203.28;;;6.36;100.00
33454;BME280;39400;49.744;7.012;2023-04-01T05:21:29;94203.72;;;6.34;100.00
33454;BME280;39400;49.744;7.012;2023-04-01T05:23:55;94211.69;;;6.52;100.00
33454;BME280;39400;49.744;7.012;2023-04-01T05:26:22;94216.84;;;6.43;100.00
33454;BME280;39400;49.744;7.012;2023-04-01T05:28:47;94213.78;;;6.41;100.00
33454;BME280;39400;49.744;7.012;2023-04-01T05:31:13;94215.94;;;6.53;100.00
33454;BME280;39400;49.744;7.012;2023-04-01T05:33:42;94217.53;;;6.51;100.00
33454;BME280;39400;49.744;7.012;2023-04-01T05:38:32;94222.25;;;6.47;100.00
33454;BME280;39400;49.744;7.012;2023-04-01T05:40:59;94216.50;;;6.41;100.00
33454;BME280;39400;49.744;7.012;2023-04-01T05:43:24;94212.78;;;6.58;100.00
33454;BME280;39400;49.744;7.012;2023-04-01T05:45:52;94222.19;;;6.54;100.00
33454;BME280;39400;49.744;7.012;2023-04-01T05:48:47;94215.47;;;6.62;100.00
33454;BME280;39400;49.744;7.012;2023-04-01T05:51:14;94226.06;;;6.56;100.00
33454;BME280;39400;49.744;7.012;2023-04-01T05:53:40;94220.59;;;6.56;100.00
33454;BME280;39400;49.744;7.012;2023-04-01T05:56:05;94219.78;;;6.59;100.00
33454;BME280;39400;49.744;7.012;2023-04-01T05:58:36;94224.81;;;6.61;100.00
33454;BME280;39400;49.744;7.012;2023-04-01T06:01:12;94232.84;;;6.72;100.00
33454;BME280;39400;49.744;7.012;2023-04-01T06:03:37;94219.00;;;6.59;100.00
33454;BME280;39400;49.744;7.012;2023-04-01T06:06:03;94227.88;;;6.66;100.00
33454;BME280;39400;49.744;7.012;2023-04-01T06:08:32;94222.69;;;6.76;100.00
33454;BME280;39400;49.744;7.012;2023-04-01T06:13:48;94225.91;;;6.67;100.00
33454;BME280;39400;49.744;7.012;2023-04-01T06:16:19;94225.84;;;6.71;100.00
33454;BME280;39400;49.744;7.012;2023-04-01T06:19:09;94233.22;;;6.74;100.00
33454;BME280;39400;49.744;7.012;2023-04-01T06:21:56;94234.63;;;6.58;100.00
33454;BME280;39400;49.744;7.012;2023-04-01T06:24:37;94240.72;;;6.70;100.00
33454;BME280;39400;49.744;7.012;2023-04-01T06:27:39;94250.91;;;6.65;100.00
33454;BME280;39400;49.744;7.012;2023-04-01T06:33:05;94239.16;;;6.69;100.00
33454;BME280;39400;49.744;7.012;2023-04-01T06:41:01;94243.78;;;6.72;100.00
33454;BME280;39400;49.744;7.012;2023-04-01T06:46:55;94242.44;;;6.56;100.00
33454;BME280;39400;49.744;7.012;2023-04-01T06:53:06;94253.69;;;6.62;100.00
33454;BME280;39400;49.744;7.012;2023-04-01T06:55:57;94254.72;;;6.72;100.00
33454;BME280;39400;49.744;7.012;2023-04-01T06:58:37;94253.94;;;6.71;100.00
33454;BME280;39400;49.744;7.012;2023-04-01T07:01:14;94250.44;;;6.71;100.00
33454;BME280;39400;49.744;7.012;2023-04-01T07:03:50;94248.13;;;6.96;100.00
33454;BME280;39400;49.744;7.012;2023-04-01T07:06:38;94256.19;;;6.80;100.00
33454;BME280;39400;49.744;7.012;2023-04-01T07:09:14;94255.88;;;7.01;100.00
33454;BME280;39400;49.744;7.012;2023-04-01T07:12:04;94264.00;;;6.78;100.00
33454;BME280;39400;49.744;7.012;2023-04-01T07:15:05;94268.97;;;6.86;100.00
33454;BME280;39400;49.744;7.012;2023-04-01T07:17:39;94267.53;;;6.75;100.00
33454;BME280;39400;49.744;7.012;2023-04-01T07:20:13;94273.00;;;6.75;100.00
33454;BME280;39400;49.744;7.012;2023-04-01T07:22:45;94291.16;;;6.88;100.00
33454;BME280;39400;49.744;7.012;2023-04-01T07:25:25;94270.97;;;6.82;100.00
33454;BME280;39400;49.744;7.012;2023-04-01T07:28:14;94283.84;;;6.82;100.00
33454;BME280;39400;49.744;7.012;2023-04-01T07:31:03;94274.72;;;6.92;100.00
33454;BME280;39400;49.744;7.012;2023-04-01T07:39:16;94288.25;;;7.03;100.00
33454;BME280;39400;49.744;7.012;2023-04-01T07:42:20;94291.94;;;6.89;100.00
33454;BME280;39400;49.744;7.012;2023-04-01T07:45:47;94293.31;;;7.04;100.00
33454;BME280;39400;49.744;7.012;2023-04-01T07:56:31;94299.50;;;7.08;100.00
33454;BME280;39400;49.744;7.012;2023-04-01T08:02:30;94324.31;;;7.21;100.00
33454;BME280;39400;49.744;7.012;2023-04-01T08:05:19;94308.06;;;7.10;100.00
33454;BME280;39400;49.744;7.012;2023-04-01T08:08:05;94316.00;;;7.01;100.00
33454;BME280;39400;49.744;7.012;2023-04-01T08:11:05;94318.34;;;6.99;100.00
33454;BME280;39400;49.744;7.012;2023-04-01T08:17:07;94319.81;;;7.07;100.00
33454;BME280;39400;49.744;7.012;2023-04-01T08:19:46;94326.94;;;7.01;100.00
33454;BME280;39400;49.744;7.012;2023-04-01T08:22:21;94322.72;;;7.24;100.00
33454;BME280;39400;49.744;7.012;2023-04-01T08:24:49;94329.03;;;7.21;100.00
33454;BME280;39400;49.744;7.012;2023-04-01T08:27:26;94323.56;;;7.21;100.00
33454;BME280;39400;49.744;7.012;2023-04-01T08:30:02;94336.75;;;7.26;100.00
33454;BME280;39400;49.744;7.012;2023-04-01T08:32:36;94343.56;;;7.41;100.00
33454;BME280;39400;49.744;7.012;2023-04-01T08:35:29;94332.88;;;7.50;100.00
33454;BME280;39400;49.744;7.012;2023-04-01T08:38:00;94337.63;;;7.46;100.00
33454;BME280;39400;49.744;7.012;2023-04-01T08:40:46;94337.22;;;7.21;100.00
33454;BME280;39400;49.744;7.012;2023-04-01T08:46:45;94354.16;;;7.39;100.00
33454;BME280;39400;49.744;7.012;2023-04-01T08:57:45;94352.75;;;7.54;100.00
33454;BME280;39400;49.744;7.012;2023-04-01T09:00:47;94350.09;;;7.47;100.00
33454;BME280;39400;49.744;7.012;2023-04-01T09:03:40;94349.13;;;7.34;100.00
33454;BME280;39400;49.744;7.012;2023-04-01T09:06:23;94363.88;;;7.40;100.00
33454;BME280;39400;49.744;7.012;2023-04-01T09:26:26;94360.22;;;7.77;100.00
33454;BME280;39400;49.744;7.012;2023-04-01T09:29:22;94365.16;;;7.62;100.00
33454;BME280;39400;49.744;7.012;2023-04-01T09:32:26;94379.06;;;7.72;100.00
33454;BME280;39400;49.744;7.012;2023-04-01T09:35:10;94377.41;;;7.78;100.00
33454;BME280;39400;49.744;7.012;2023-04-01T09:40:25;94379.53;;;7.67;100.00
33454;BME280;39400;49.744;7.012;2023-04-01T09:45:47;94384.47;;;7.75;100.00
33454;BME280;39400;49.744;7.012;2023-04-01T09:54:20;94389.06;;;7.82;100.00
33454;BME280;39400;49.744;7.012;2023-04-01T09:57:22;94380.31;;;7.67;100.00
33454;BME280;39400;49.744;7.012;2023-04-01T10:03:14;94379.81;;;7.72;100.00
33454;BME280;39400;49.744;7.012;2023-04-01T10:22:57;94391.41;;;8.07;100.00
33454;BME280;39400;49.744;7.012;2023-04-01T10:25:28;94399.13;;;7.89;100.00
33454;BME280;39400;49.744;7.012;2023-04-01T10:37:18;94393.91;;;7.98;100.00
33454;BME280;39400;49.744;7.012;2023-04-01T10:46:39;94373.75;;;8.12;100.00
33454;BME280;39400;49.744;7.012;2023-04-01T11:02:05;94396.19;;;8.26;100.00
33454;BME280;39400;49.744;7.012;2023-04-01T11:25:20;94398.31;;;8.42;100.00
33454;BME280;39400;49.744;7.012;2023-04-01T11:28:27;94404.72;;;8.32;100.00
33454;BME280;39400;49.744;7.012;2023-04-01T11:34:28;94406.41;;;8.49;100.00
33454;BME280;39400;49.744;7.012;2023-04-01T11:40:45;94427.34;;;8.36;100.00
33454;BME280;39400;49.744;7.012;2023-04-01T11:46:30;94414.00;;;8.15;100.00
33454;BME280;39400;49.744;7.012;2023-04-01T11:52:19;94429.88;;;8.23;100.00
33454;BME280;39400;49.744;7.012;2023-04-01T11:54:40;94420.66;;;8.37;100.00
33454;BME280;39400;49.744;7.012;2023-04-01T12:00:02;94428.00;;;8.44;100.00
33454;BME280;39400;49.744;7.012;2023-04-01T12:05:47;94459.88;;;8.30;100.00
33454;BME280;39400;49.744;7.012;2023-04-01T12:11:35;94449.47;;;8.22;100.00
33454;BME280;39400;49.744;7.012;2023-04-01T12:14:21;94448.75;;;8.18;100.00
33454;BME280;39400;49.744;7.012;2023-04-01T12:20:32;94467.41;;;7.69;100.00
33454;BME280;39400;49.744;7.012;2023-04-01T12:26:15;94474.91;;;7.65;100.00
33454;BME280;39400;49.744;7.012;2023-04-01T12:37:41;94494.97;;;7.54;100.00
33454;BME280;39400;49.744;7.012;2023-04-01T12:45:48;94502.03;;;7.52;100.00
33454;BME280;39400;49.744;7.012;2023-04-01T12:48:44;94500.59;;;7.40;100.00
33454;BME280;39400;49.744;7.012;2023-04-01T12:59:00;94500.59;;;8.01;100.00
33454;BME280;39400;49.744;7.012;2023-04-01T13:23:18;94510.59;;;8.15;100.00
33454;BME280;39400;49.744;7.012;2023-04-01T13:26:24;94501.53;;;8.18;100.00
33454;BME280;39400;49.744;7.012;2023-04-01T13:31:42;94520.75;;;8.15;100.00
33454;BME280;39400;49.744;7.012;2023-04-01T13:43:08;94513.25;;;7.92;100.00
33454;BME280;39400;49.744;7.012;2023-04-01T13:48:29;94513.00;;;8.09;100.00
33454;BME280;39400;49.744;7.012;2023-04-01T13:59:36;94531.81;;;8.07;100.00
33454;BME280;39400;49.744;7.012;2023-04-01T14:02:46;94532.78;;;8.21;100.00
33454;BME280;39400;49.744;7.012;2023-04-01T14:05:39;94542.72;;;8.11;100.00
33454;BME280;39400;49.744;7.012;2023-04-01T14:19:29;94547.38;;;8.41;100.00
33454;BME280;39400;49.744;7.012;2023-04-01T14:22:17;94558.00;;;8.39;100.00
33454;BME280;39400;49.744;7.012;2023-04-01T14:39:06;94561.09;;;8.10;100.00
33454;BME280;39400;49.744;7.012;2023-04-01T14:44:51;94580.28;;;8.07;100.00
33454;BME280;39400;49.744;7.012;2023-04-01T14:47:43;94562.56;;;7.88;100.00
33454;BME280;39400;49.744;7.012;2023-04-01T14:50:13;94573.88;;;7.90;100.00
33454;BME280;39400;49.744;7.012;2023-04-01T14:52:43;94590.00;;;7.81;100.00
33454;BME280;39400;49.744;7.012;2023-04-01T14:55:28;94576.75;;;7.76;100.00
33454;BME280;39400;49.744;7.012;2023-04-01T14:58:15;94584.53;;;7.81;100.00
33454;BME280;39400;49.744;7.012;2023-04-01T15:00:48;94583.16;;;7.66;100.00
33454;BME280;39400;49.744;7.012;2023-04-01T15:12:04;94586.03;;;7.85;100.00
33454;BME280;39400;49.744;7.012;2023-04-01T15:25:41;94599.97;;;7.98;100.00
33454;BME280;39400;49.744;7.012;2023-04-01T15:31:12;94597.41;;;7.84;100.00
33454;BME280;39400;49.744;7.012;2023-04-01T15:34:06;94611.38;;;7.93;100.00
33454;BME280;39400;49.744;7.012;2023-04-01T15:36:57;94607.06;;;7.92;100.00
33454;BME280;39400;49.744;7.012;2023-04-01T15:39:40;94622.19;;;7.70;100.00
33454;BME280;39400;49.744;7.012;2023-04-01T15:47:36;94618.25;;;7.71;100.00
33454;BME280;39400;49.744;7.012;2023-04-01T15:50:26;94612.63;;;7.85;100.00
33454;BME280;39400;49.744;7.012;2023-04-01T15:55:37;94614.28;;;7.75;100.00
33454;BME280;39400;49.744;7.012;2023-04-01T15:58:36;94627.47;;;7.88;100.00
33454;BME280;39400;49.744;7.012;2023-04-01T16:09:25;94637.31;;;7.40;100.00
33454;BME280;39400;49.744;7.012;2023-04-01T16:12:04;94642.66;;;7.54;100.00
33454;BME280;39400;49.744;7.012;2023-04-01T16:17:35;94640.88;;;7.37;100.00
33454;BME280;39400;49.744;7.012;2023-04-01T16:20:20;94654.13;;;7.42;100.00
33454;BME280;39400;49.744;7.012;2023-04-01T16:25:31;94660.84;;;7.30;100.00
33454;BME280;39400;49.744;7.012;2023-04-01T16:30:47;94671.44;;;7.25;100.00
33454;BME280;39400;49.744;7.012;2023-04-01T16:33:32;94667.09;;;7.31;100.00
33454;BME280;39400;49.744;7.012;2023-04-01T16:36:22;94665.50;;;7.33;100.00
33454;BME280;39400;49.744;7.012;2023-04-01T16:41:54;94676.88;;;7.28;100.00
33454;BME280;39400;49.744;7.012;2023-04-01T16:44:26;94673.31;;;7.35;100.00
33454;BME280;39400;49.744;7.012;2023-04-01T16:46:56;94680.34;;;7.36;100.00
33454;BME280;39400;49.744;7.012;2023-04-01T16:49:31;94668.25;;;7.33;100.00
33454;BME280;39400;49.744;7.012;2023-04-01T16:55:16;94683.38;;;7.45;100.00
33454;BME280;39400;49.744;7.012;2023-04-01T17:06:05;94691.56;;;7.00;100.00
33454;BME280;39400;49.744;7.012;2023-04-01T17:11:16;94703.13;;;7.19;100.00
33454;BME280;39400;49.744;7.012;2023-04-01T17:13:54;94690.94;;;7.27;100.00
33454;BME280;39400;49.744;7.012;2023-04-01T17:24:31;94701.53;;;7.25;100.00
33454;BME280;39400;49.744;7.012;2023-04-01T17:30:27;94712.56;;;7.10;100.00
33454;BME280;39400;49.744;7.012;2023-04-01T17:33:21;94717.69;;;7.01;100.00
33454;BME280;39400;49.744;7.012;2023-04-01T17:38:40;94706.38;;;6.99;100.00
33454;BME280;39400;49.744;7.012;2023-04-01T17:49:43;94725.16;;;6.97;100.00
33454;BME280;39400;49.744;7.012;2023-04-01T17:52:32;94738.81;;;6.97;100.00
33454;BME280;39400;49.744;7.012;2023-04-01T17:58:10;94732.94;;;6.95;100.00
33454;BME280;39400;49.744;7.012;2023-04-01T18:01:05;94744.25;;;7.01;100.00
33454;BME280;39400;49.744;7.012;2023-04-01T18:12:09;94752.59;;;6.76;100.00
33454;BME280;39400;49.744;7.012;2023-04-01T18:17:32;94767.34;;;6.89;100.00
33454;BME280;39400;49.744;7.012;2023-04-01T18:20:14;94764.28;;;6.80;100.00
33454;BME280;39400;49.744;7.012;2023-04-01T18:28:21;94789.97;;;6.93;100.00
33454;BME280;39400;49.744;7.012;2023-04-01T18:30:55;94784.13;;;6.91;100.00
33454;BME280;39400;49.744;7.012;2023-04-01T18:38:46;94788.44;;;6.85;100.00
33454;BME280;39400;49.744;7.012;2023-04-01T18:49:21;94798.56;;;6.91;100.00
33454;BME280;39400;49.744;7.012;2023-04-01T18:54:33;94807.44;;;7.06;100.00
33454;BME280;39400;49.744;7.012;2023-04-01T18:57:16;94807.13;;;6.97;100.00
33454;BME280;39400;49.744;7.012;2023-04-01T18:59:46;94808.25;;;7.07;100.00
33454;BME280;39400;49.744;7.012;2023-04-01T19:05:02;94828.25;;;6.86;100.00
33454;BME280;39400;49.744;7.012;2023-04-01T19:10:00;94835.69;;;6.75;100.00
33454;BME280;39400;49.744;7.012;2023-04-01T19:20:44;94845.38;;;6.97;100.00
33454;BME280;39400;49.744;7.012;2023-04-01T19:26:02;94855.94;;;6.91;100.00
33454;BME280;39400;49.744;7.012;2023-04-01T19:36:45;94863.41;;;6.80;100.00
33454;BME280;39400;49.744;7.012;2023-04-01T19:42:18;94869.25;;;6.75;100.00
33454;BME280;39400;49.744;7.012;2023-04-01T19:44:56;94868.06;;;6.87;100.00
33454;BME280;39400;49.744;7.012;2023-04-01T19:52:47;94879.81;;;6.70;100.00
33454;BME280;39400;49.744;7.012;2023-04-01T19:55:36;94880.63;;;6.63;100.00
33454;BME280;39400;49.744;7.012;2023-04-01T20:05:50;94906.38;;;6.65;100.00
33454;BME280;39400;49.744;7.012;2023-04-01T20:10:59;94897.03;;;6.59;100.00
33454;BME280;39400;49.744;7.012;2023-04-01T20:16:11;94900.91;;;6.65;100.00
33454;BME280;39400;49.744;7.012;2023-04-01T20:18:51;94910.69;;;6.52;100.00
33454;BME280;39400;49.744;7.012;2023-04-01T20:21:38;94915.72;;;6.64;100.00
33454;BME280;39400;49.744;7.012;2023-04-01T20:26:41;94922.75;;;6.65;100.00
33454;BME280;39400;49.744;7.012;2023-04-01T20:31:41;94929.00;;;6.59;100.00
33454;BME280;39400;49.744;7.012;2023-04-01T20:49:52;94937.22;;;6.52;100.00
33454;BME280;39400;49.744;7.012;2023-04-01T20:52:41;94931.75;;;6.62;100.00
33454;BME280;39400;49.744;7.012;2023-04-01T21:06:01;94941.50;;;6.46;100.00
33454;BME280;39400;49.744;7.012;2023-04-01T21:31:00;94971.56;;;6.28;100.00
33454;BME280;39400;49.744;7.012;2023-04-01T21:38:48;94976.59;;;6.33;100.00
33454;BME280;39400;49.744;7.012;2023-04-01T21:41:56;94983.25;;;6.25;100.00
33454;BME280;39400;49.744;7.012;2023-04-01T21:50:24;94976.59;;;6.29;100.00
33454;BME280;39400;49.744;7.012;2023-04-01T22:07:06;94988.31;;;6.33;100.00
33454;BME280;39400;49.744;7.012;2023-04-01T22:09:39;94984.38;;;6.13;100.00
33454;BME280;39400;49.744;7.012;2023-04-01T22:12:19;94988.31;;;6.23;100.00
33454;BME280;39400;49.744;7.012;2023-04-01T22:15:44;94989.06;;;6.19;100.00
33454;BME280;39400;49.744;7.012;2023-04-01T22:17:58;94987.13;;;6.16;100.00
33454;BME280;39400;49.744;7.012;2023-04-01T22:25:52;95006.63;;;6.18;100.00
33454;BME280;39400;49.744;7.012;2023-04-01T22:28:26;94999.97;;;6.09;100.00
33454;BME280;39400;49.744;7.012;2023-04-01T22:31:05;95004.66;;;6.12;100.00
33454;BME280;39400;49.744;7.012;2023-04-01T22:41:27;95014.75;;;5.90;100.00
33454;BME280;39400;49.744;7.012;2023-04-01T22:43:57;95019.84;;;5.95;100.00